Time;durP1;ratioP1;P1;durP2;ratioP2;P2;SDS_P1;SDS_P2;PMS_P1;PMS_P2;Temp;Humidity;BMP_temperature;BMP_pressure;BME280_temperature;BME280_humidity;BME280_pressure;Samples;Min_cycle;Max_cycle;Signal;HPM_P1;HPM_P2
2021/06/24 00:01:11;;;;;;;14.13;12.63;;;;;;;16.67;90.38;98664.16;5104115;28;20020;-63
2021/06/24 00:03:38;;;;;;;14.02;12.63;;;;;;;16.71;90.64;98649.78;5104091;28;20350;-63
2021/06/24 00:06:05;;;;;;;12.65;11.45;;;;;;;16.75;90.82;98646.09;5104039;28;20020;-63
2021/06/24 00:08:31;;;;;;;13.90;11.82;;;;;;;16.75;90.98;98640.78;5104026;28;20087;-63
2021/06/24 00:10:59;;;;;;;15.52;13.15;;;;;;;16.78;90.94;98637.09;5104032;28;20047;-63
2021/06/24 00:13:26;;;;;;;16.30;13.63;;;;;;;16.76;89.93;98641.63;5104063;28;20020;-63
2021/06/24 00:15:53;;;;;;;17.50;13.20;;;;;;;16.80;90.01;98644.06;5104015;28;20330;-63
2021/06/24 00:18:19;;;;;;;15.55;12.85;;;;;;;16.77;90.07;98649.53;5104027;28;20016;-63
2021/06/24 00:20:45;;;;;;;13.45;11.90;;;;;;;16.75;90.22;98646.09;5103994;28;20027;-63
2021/06/24 00:23:11;;;;;;;17.40;12.77;;;;;;;16.69;90.57;98646.34;5104198;28;20016;-63
2021/06/24 00:25:36;;;;;;;16.17;13.57;;;;;;;16.70;90.53;98634.78;5103915;28;20043;-63
2021/06/24 00:28:03;;;;;;;15.80;13.25;;;;;;;16.73;90.73;98642.63;5103747;28;20098;-63
2021/06/24 00:30:28;;;;;;;14.90;13.25;;;;;;;16.70;90.06;98647.19;5103768;28;20024;-63
2021/06/24 00:32:54;;;;;;;14.55;13.18;;;;;;;16.76;90.42;98645.16;5103862;28;20068;-63
2021/06/24 00:35:19;;;;;;;14.45;13.02;;;;;;;16.84;90.40;98648.31;5103825;28;20024;-63
2021/06/24 00:37:45;;;;;;;14.48;11.75;;;;;;;16.97;89.73;98668.13;5104033;28;20020;-63
2021/06/24 00:40:12;;;;;;;14.57;12.25;;;;;;;16.98;89.79;98667.19;5103746;28;20019;-63
2021/06/24 00:42:39;;;;;;;19.48;13.75;;;;;;;16.95;89.91;98667.34;5103791;28;20124;-63
2021/06/24 00:45:06;;;;;;;19.20;14.38;;;;;;;16.90;90.16;98666.66;5103760;28;20030;-63
2021/06/24 00:47:32;;;;;;;19.70;15.30;;;;;;;16.85;90.50;98660.69;5103712;28;20016;-63
2021/06/24 00:49:57;;;;;;;18.70;14.15;;;;;;;16.89;90.81;98654.31;5103589;28;20062;-63
2021/06/24 00:52:23;;;;;;;15.40;13.80;;;;;;;16.98;89.46;98658.34;5103899;28;20081;-63
2021/06/24 00:54:48;;;;;;;20.98;14.48;;;;;;;17.00;89.86;98652.00;5104275;28;20020;-63
2021/06/24 00:57:14;;;;;;;14.30;12.80;;;;;;;17.04;89.49;98660.75;5107409;28;20020;-63
2021/06/24 00:59:39;;;;;;;18.42;15.85;;;;;;;16.99;90.18;98655.63;5107349;28;20020;-63
2021/06/24 01:02:05;;;;;;;17.02;15.15;;;;;;;17.13;89.01;98657.66;5107371;28;20026;-63
2021/06/24 01:04:35;;;;;;;19.67;16.15;;;;;;;17.05;89.06;98665.97;5107287;28;20242;-63
2021/06/24 01:07:01;;;;;;;19.90;15.80;;;;;;;17.18;88.67;98648.53;5107268;28;20027;-63
2021/06/24 01:09:26;;;;;;;16.45;14.70;;;;;;;17.11;88.28;98655.06;5107129;28;20027;-63
2021/06/24 01:11:54;;;;;;;19.25;15.82;;;;;;;17.09;89.04;98651.59;5107155;28;20066;-63
2021/06/24 01:14:20;;;;;;;22.27;16.58;;;;;;;17.07;89.21;98642.84;5107120;28;20016;-63
2021/06/24 01:16:45;;;;;;;19.90;15.52;;;;;;;17.02;89.43;98644.84;5107090;28;20024;-63
2021/06/24 01:19:12;;;;;;;20.88;16.98;;;;;;;17.02;89.68;98639.53;5107277;28;20012;-63
2021/06/24 01:21:38;;;;;;;17.90;16.17;;;;;;;16.99;89.71;98649.44;5107020;28;20020;-63
2021/06/24 01:24:04;;;;;;;19.08;16.48;;;;;;;16.96;90.03;98652.25;5106947;28;20100;-63
2021/06/24 01:26:29;;;;;;;18.45;16.02;;;;;;;17.00;89.99;98651.19;5106678;28;20051;-63
2021/06/24 01:28:54;;;;;;;16.58;15.05;;;;;;;17.07;89.28;98653.50;5106767;28;20072;-63
2021/06/24 01:31:21;;;;;;;17.98;16.10;;;;;;;17.06;89.34;98650.91;5106772;28;20016;-63
2021/06/24 01:33:47;;;;;;;18.38;15.48;;;;;;;17.04;89.35;98648.31;5106795;28;20043;-63
2021/06/24 01:36:13;;;;;;;16.83;14.93;;;;;;;17.03;89.44;98646.56;5106712;28;20090;-63
2021/06/24 01:38:41;;;;;;;17.00;15.18;;;;;;;17.07;89.60;98658.81;5106601;28;20231;-63
2021/06/24 01:41:07;;;;;;;16.60;14.52;;;;;;;17.11;89.54;98655.06;5106643;28;20087;-63
2021/06/24 01:43:32;;;;;;;22.33;16.75;;;;;;;17.12;89.55;98646.16;5106556;28;20019;-63
2021/06/24 01:45:59;;;;;;;17.92;14.63;;;;;;;17.16;89.42;98647.78;5106522;28;20020;-63
2021/06/24 01:48:26;;;;;;;21.00;15.60;;;;;;;17.08;89.97;98649.91;5106421;28;20024;-63
2021/06/24 01:50:57;;;;;;;19.08;16.02;;;;;;;16.97;89.83;98644.22;5106386;28;20050;-63
2021/06/24 01:53:22;;;;;;;18.55;15.57;;;;;;;16.94;90.52;98647.00;5106392;28;20023;-63
2021/06/24 01:55:48;;;;;;;19.33;14.27;;;;;;;16.90;90.07;98644.53;5106363;28;20220;-63
2021/06/24 01:58:19;;;;;;;14.65;13.00;;;;;;;16.94;90.04;98641.69;5106463;28;20023;-63
2021/06/24 02:00:45;;;;;;;13.55;11.93;;;;;;;16.90;89.78;98639.22;5106333;28;20023;-63
2021/06/24 02:03:12;;;;;;;12.65;11.45;;;;;;;16.83;90.45;98638.63;5106206;28;20024;-63
2021/06/24 02:05:37;;;;;;;14.95;13.40;;;;;;;16.79;90.51;98639.69;5106156;28;20019;-63
2021/06/24 02:08:03;;;;;;;17.13;12.88;;;;;;;16.80;90.79;98633.44;5105188;28;20030;-63
2021/06/24 02:10:28;;;;;;;14.35;12.82;;;;;;;16.72;91.56;98638.25;5106036;28;20020;-63
2021/06/24 02:12:54;;;;;;;14.57;13.07;;;;;;;16.69;91.28;98642.81;5106020;28;20074;-63
2021/06/24 02:15:20;;;;;;;15.50;13.88;;;;;;;16.68;91.41;98628.66;5106012;28;20091;-63
2021/06/24 02:17:45;;;;;;;14.48;12.95;;;;;;;16.69;91.48;98638.38;5105941;28;20023;-63
2021/06/24 02:20:14;;;;;;;16.38;13.40;;;;;;;16.64;91.47;98643.00;5105880;28;20040;-63
2021/06/24 02:22:40;;;;;;;14.10;12.80;;;;;;;16.64;91.16;98643.00;5105808;28;20105;-63
2021/06/24 02:25:07;;;;;;;14.07;12.68;;;;;;;16.60;91.81;98646.75;5105777;28;20020;-63
2021/06/24 02:27:33;;;;;;;12.10;10.63;;;;;;;16.65;91.46;98644.72;5105541;28;20047;-63
2021/06/24 02:29:58;;;;;;;12.45;11.15;;;;;;;16.59;91.91;98642.38;5105611;28;20028;-63
2021/06/24 02:32:24;;;;;;;10.20;9.23;;;;;;;16.67;92.00;98648.19;5105587;28;20024;-63
2021/06/24 02:34:51;;;;;;;9.52;8.63;;;;;;;16.66;91.57;98645.59;5105757;28;20073;-63
2021/06/24 02:37:17;;;;;;;9.30;8.40;;;;;;;16.68;91.82;98649.91;5105744;28;20024;-63
2021/06/24 02:39:42;;;;;;;10.43;9.43;;;;;;;16.71;91.55;98655.09;5105494;28;20020;-63
2021/06/24 02:42:08;;;;;;;9.70;8.70;;;;;;;16.75;91.64;98655.84;5105406;28;20028;-63
2021/06/24 02:44:34;;;;;;;9.50;8.60;;;;;;;16.74;91.61;98649.66;5105639;28;20294;-63
2021/06/24 02:46:59;;;;;;;11.40;9.57;;;;;;;16.65;91.73;98644.72;5105329;28;20123;-63
2021/06/24 02:49:24;;;;;;;10.85;9.85;;;;;;;16.63;91.53;98633.31;5105413;28;20043;-63
2021/06/24 02:51:50;;;;;;;11.13;10.02;;;;;;;16.59;91.93;98634.41;5104108;28;20024;-63
2021/06/24 02:54:16;;;;;;;11.93;9.02;;;;;;;16.55;91.79;98627.47;5105240;28;20027;-63
2021/06/24 02:56:43;;;;;;;7.80;6.30;;;;;;;16.59;91.48;98623.78;5105167;28;20044;-63
2021/06/24 02:59:09;;;;;;;6.10;5.50;;;;;;;16.67;91.03;98616.31;5105024;28;20220;-63
2021/06/24 03:01:36;;;;;;;5.13;4.63;;;;;;;16.76;90.51;98612.38;5105048;28;20023;-63
2021/06/24 03:04:02;;;;;;;6.80;4.95;;;;;;;16.75;90.45;98614.19;5104992;28;20052;-63
2021/06/24 03:06:28;;;;;;;5.88;5.35;;;;;;;16.68;90.82;98612.72;5105000;28;20183;-63
2021/06/24 03:08:53;;;;;;;6.25;5.65;;;;;;;16.65;91.00;98623.47;5104876;28;20024;-63
2021/06/24 03:11:19;;;;;;;6.70;4.88;;;;;;;16.64;91.03;98616.44;5104877;28;20047;-63
2021/06/24 03:13:47;;;;;;;8.02;7.32;;;;;;;16.59;91.36;98618.44;5104890;28;20027;-63
2021/06/24 03:16:13;;;;;;;11.40;9.32;;;;;;;16.64;91.22;98616.44;5104708;28;20031;-63
2021/06/24 03:18:38;;;;;;;10.05;8.98;;;;;;;16.62;91.02;98613.00;5104590;28;20071;-63
2021/06/24 03:21:04;;;;;;;9.70;8.70;;;;;;;16.62;91.00;98613.00;5104699;28;20024;-63
2021/06/24 03:23:29;;;;;;;12.65;8.98;;;;;;;16.58;90.99;98614.03;5104663;28;20055;-63
2021/06/24 03:25:55;;;;;;;10.68;9.52;;;;;;;16.58;90.97;98611.38;5104438;28;20020;-63
2021/06/24 03:28:21;;;;;;;10.73;9.63;;;;;;;16.52;90.97;98616.97;5104576;28;20024;-63
2021/06/24 03:30:46;;;;;;;12.30;11.18;;;;;;;16.49;91.22;98622.41;5104537;28;20315;-63
2021/06/24 03:33:12;;;;;;;12.07;10.55;;;;;;;16.47;91.09;98628.72;5104494;28;20048;-63
2021/06/24 03:35:37;;;;;;;12.60;11.40;;;;;;;16.47;91.20;98618.09;5104488;28;20024;-63
2021/06/24 03:38:03;;;;;;;11.85;10.65;;;;;;;16.42;91.17;98626.22;5104431;28;20368;-63
2021/06/24 03:40:28;;;;;;;12.27;11.18;;;;;;;16.37;91.43;98617.63;5104401;28;20024;-63
2021/06/24 03:42:54;;;;;;;12.77;11.57;;;;;;;16.27;91.86;98616.28;5104372;28;20031;-63
2021/06/24 03:45:19;;;;;;;11.20;10.10;;;;;;;16.31;91.52;98607.25;5104307;28;20031;-63
2021/06/24 03:47:45;;;;;;;11.93;10.80;;;;;;;16.31;92.25;98607.25;5104535;28;20088;-63
2021/06/24 03:50:13;;;;;;;11.63;10.57;;;;;;;16.24;92.15;98600.47;5104234;28;20315;-63
2021/06/24 03:52:38;;;;;;;11.75;10.65;;;;;;;16.20;92.08;98598.00;5104247;28;20028;-63
2021/06/24 03:55:06;;;;;;;11.80;10.50;;;;;;;16.23;92.14;98592.56;5104234;28;20357;-63
2021/06/24 03:57:31;;;;;;;12.07;10.57;;;;;;;16.19;91.96;98589.16;5104427;28;20170;-63
2021/06/24 03:59:56;;;;;;;12.45;11.15;;;;;;;16.18;91.95;98584.78;5104176;28;20245;-63
2021/06/24 04:02:23;;;;;;;15.93;10.20;;;;;;;16.26;91.60;98579.16;5104177;28;20016;-63
2021/06/24 04:04:48;;;;;;;11.23;9.95;;;;;;;16.25;91.81;98580.94;5104099;28;20027;-63
2021/06/24 04:07:14;;;;;;;12.20;10.70;;;;;;;16.17;92.07;98585.69;5104077;28;20027;-63
2021/06/24 04:09:39;;;;;;;11.10;10.10;;;;;;;16.26;91.68;98572.03;5104031;28;20030;-63
2021/06/24 04:12:05;;;;;;;14.10;10.68;;;;;;;16.27;91.81;98575.56;5104076;28;20028;-63
2021/06/24 04:14:30;;;;;;;10.70;9.65;;;;;;;16.29;91.56;98571.91;5104008;28;20342;-63
2021/06/24 04:16:56;;;;;;;10.45;9.00;;;;;;;16.29;91.42;98565.72;5103971;28;20242;-63
2021/06/24 04:19:21;;;;;;;10.65;9.50;;;;;;;16.25;91.74;98562.34;5103970;28;20025;-63
2021/06/24 04:21:47;;;;;;;10.02;9.07;;;;;;;16.28;91.36;98562.22;5103954;28;20361;-63
2021/06/24 04:24:12;;;;;;;10.13;8.70;;;;;;;16.31;91.17;98559.44;5103925;28;20083;-62
2021/06/24 04:26:38;;;;;;;10.43;9.50;;;;;;;16.31;91.36;98567.41;5103755;28;20058;-62
2021/06/24 04:29:03;;;;;;;10.27;9.27;;;;;;;16.29;91.44;98563.06;5103753;28;20039;-62
2021/06/24 04:31:29;;;;;;;10.25;9.23;;;;;;;16.25;91.67;98565.00;5107356;28;20311;-62
2021/06/24 04:33:56;;;;;;;11.20;10.10;;;;;;;16.27;91.78;98565.81;5107853;28;20057;-62
2021/06/24 04:36:21;;;;;;;11.52;10.38;;;;;;;16.26;91.90;98566.72;5107849;28;20016;-62
2021/06/24 04:38:47;;;;;;;12.40;11.20;;;;;;;16.28;92.16;98566.66;5107867;28;20019;-62
2021/06/24 04:41:12;;;;;;;12.27;10.65;;;;;;;16.26;92.30;98564.06;5107763;28;20273;-62
2021/06/24 04:43:37;;;;;;;11.30;10.18;;;;;;;16.29;92.31;98566.59;5107787;28;20023;-62
2021/06/24 04:46:03;;;;;;;12.40;11.05;;;;;;;16.31;92.34;98564.75;5107697;28;20081;-63
2021/06/24 04:48:28;;;;;;;11.40;10.30;;;;;;;16.30;92.05;98573.63;5107883;28;20022;-63
2021/06/24 04:50:54;;;;;;;10.63;9.57;;;;;;;16.33;92.31;98576.16;5107611;28;20035;-63
2021/06/24 04:53:19;;;;;;;10.98;9.88;;;;;;;16.37;92.26;98572.44;5107568;28;20095;-63
2021/06/24 04:55:45;;;;;;;10.70;9.65;;;;;;;16.36;92.27;98573.38;5107538;28;20020;-63
2021/06/24 04:58:10;;;;;;;11.43;10.15;;;;;;;16.34;92.27;98575.25;5107361;28;20376;-63
2021/06/24 05:00:36;;;;;;;10.45;9.23;;;;;;;16.34;92.22;98580.56;5107377;28;20012;-63
2021/06/24 05:03:03;;;;;;;10.18;9.10;;;;;;;16.34;92.15;98575.25;5107367;28;20100;-63
2021/06/24 05:05:28;;;;;;;9.52;8.57;;;;;;;16.37;92.21;98572.44;5089181;28;20016;-63
2021/06/24 05:07:54;;;;;;;10.07;9.07;;;;;;;16.37;92.16;98575.13;5107293;28;20091;-63
2021/06/24 05:10:20;;;;;;;8.80;7.95;;;;;;;16.38;92.06;98576.81;5107168;28;20028;-63
2021/06/24 05:12:46;;;;;;;10.38;9.38;;;;;;;16.40;91.78;98568.78;5107188;28;20016;-63
2021/06/24 05:15:12;;;;;;;10.85;8.35;;;;;;;16.41;91.72;98571.38;5107143;28;20115;-63
2021/06/24 05:17:38;;;;;;;8.98;8.07;;;;;;;16.43;91.84;98577.53;5107086;28;20026;-63
2021/06/24 05:20:07;;;;;;;9.77;8.73;;;;;;;16.41;92.03;98575.81;5107012;28;20027;-63
2021/06/24 05:22:32;;;;;;;8.18;7.38;;;;;;;16.42;91.57;98573.09;5106900;28;20020;-63
2021/06/24 05:24:59;;;;;;;9.30;7.53;;;;;;;16.48;91.93;98572.88;5106958;28;20061;-63
2021/06/24 05:27:25;;;;;;;7.07;6.30;;;;;;;16.41;91.39;98566.06;5106797;28;20200;-63
2021/06/24 05:29:50;;;;;;;8.10;7.30;;;;;;;16.40;91.65;98569.66;5106785;28;20027;-63
2021/06/24 05:32:16;;;;;;;8.32;6.93;;;;;;;16.51;91.90;98571.84;5106820;28;20028;-63
2021/06/24 05:34:41;;;;;;;7.55;6.80;;;;;;;16.49;91.95;98563.97;5106772;28;20027;-63
2021/06/24 05:37:07;;;;;;;6.40;5.80;;;;;;;16.49;91.96;98563.97;5106802;28;20379;-63
2021/06/24 05:39:32;;;;;;;9.85;6.82;;;;;;;16.46;91.83;98556.13;5106943;28;20016;-63
2021/06/24 05:41:58;;;;;;;6.20;5.60;;;;;;;16.46;91.62;98558.78;5105263;28;20050;-63
2021/06/24 05:44:27;;;;;;;7.90;5.63;;;;;;;16.42;91.74;98559.81;5106607;28;20242;-63
2021/06/24 05:46:54;;;;;;;6.35;5.72;;;;;;;16.50;91.58;98554.19;5106523;28;20028;-63
2021/06/24 05:49:19;;;;;;;7.32;5.45;;;;;;;16.42;91.28;98557.16;5106435;28;20042;-63
2021/06/24 05:51:45;;;;;;;5.65;5.15;;;;;;;16.44;91.77;98560.66;5106716;28;20024;-63
2021/06/24 05:54:11;;;;;;;7.40;4.82;;;;;;;16.43;91.57;98553.63;5106413;28;20250;-63
2021/06/24 05:56:36;;;;;;;5.80;5.18;;;;;;;16.47;92.33;98560.53;5106341;28;20020;-63
2021/06/24 05:59:03;;;;;;;6.97;5.20;;;;;;;16.46;91.79;98557.94;5106245;28;20012;-63
2021/06/24 06:01:29;;;;;;;6.10;4.85;;;;;;;16.47;91.30;98560.53;5106260;28;20020;-63
2021/06/24 06:03:55;;;;;;;4.97;4.40;;;;;;;16.48;91.57;98556.06;5106207;28;20020;-63
2021/06/24 06:06:20;;;;;;;4.55;4.15;;;;;;;16.53;91.57;98557.59;5106172;28;20016;-63
2021/06/24 06:08:46;;;;;;;6.00;5.05;;;;;;;16.48;91.40;98556.94;5106088;28;20087;-63
2021/06/24 06:11:12;;;;;;;5.55;4.80;;;;;;;16.49;91.64;98555.97;5106311;28;20028;-63
2021/06/24 06:13:38;;;;;;;5.72;4.93;;;;;;;16.50;91.47;98544.44;5106036;28;20038;-63
2021/06/24 06:16:03;;;;;;;4.82;4.07;;;;;;;16.48;91.45;98550.75;5106258;28;20259;-63
2021/06/24 06:18:29;;;;;;;5.13;4.13;;;;;;;16.50;91.77;98559.53;5105927;28;20016;-63
2021/06/24 06:20:56;;;;;;;4.07;3.67;;;;;;;16.51;91.28;98567.41;5105914;28;20020;-63
2021/06/24 06:23:23;;;;;;;4.38;3.88;;;;;;;16.57;91.26;98571.59;5106089;28;20346;-63
2021/06/24 06:25:50;;;;;;;5.55;3.83;;;;;;;16.61;91.83;98574.06;5105794;28;20020;-63
2021/06/24 06:28:17;;;;;;;4.95;3.88;;;;;;;16.60;91.38;98577.66;5105725;28;20040;-63
2021/06/24 06:30:44;;;;;;;5.07;4.15;;;;;;;16.60;91.27;98577.66;5105655;28;20031;-63
2021/06/24 06:33:10;;;;;;;4.88;4.38;;;;;;;16.59;91.22;98578.59;5105721;28;20215;-63
2021/06/24 06:35:35;;;;;;;4.50;4.10;;;;;;;16.62;91.44;98582.91;5105570;28;20024;-63
2021/06/24 06:38:01;;;;;;;4.57;4.18;;;;;;;16.52;91.55;98585.06;5105529;28;20020;-63
2021/06/24 06:40:27;;;;;;;4.40;4.00;;;;;;;16.63;91.68;98592.59;5105487;28;20016;-63
2021/06/24 06:42:52;;;;;;;4.65;3.65;;;;;;;16.73;91.24;98596.56;5105451;28;20085;-63
2021/06/24 06:45:18;;;;;;;5.13;3.67;;;;;;;16.78;90.51;98592.78;5105388;28;20031;-63
2021/06/24 06:47:45;;;;;;;3.20;2.90;;;;;;;16.82;89.87;98594.38;5105389;28;20338;-63
2021/06/24 06:50:11;;;;;;;4.18;3.00;;;;;;;16.84;89.90;98607.59;5087151;28;20023;-63
2021/06/24 06:52:37;;;;;;;3.28;2.80;;;;;;;16.77;89.32;98601.66;5104942;28;20094;-63
2021/06/24 06:55:02;;;;;;;2.58;2.35;;;;;;;16.90;88.80;98613.47;5105201;28;20019;-63
2021/06/24 06:57:28;;;;;;;2.75;2.45;;;;;;;16.85;89.42;98604.88;5105125;28;20083;-63
2021/06/24 06:59:53;;;;;;;2.85;2.55;;;;;;;16.92;90.13;98611.63;5105104;28;20012;-63
2021/06/24 07:02:19;;;;;;;2.97;2.50;;;;;;;16.97;89.92;98609.63;5105088;28;20023;-63
2021/06/24 07:04:44;;;;;;;3.13;2.65;;;;;;;16.98;90.43;98611.34;5105030;28;20015;-63
2021/06/24 07:07:09;;;;;;;2.20;2.00;;;;;;;16.99;89.06;98607.75;5105031;28;20211;-63
2021/06/24 07:09:35;;;;;;;3.60;2.60;;;;;;;17.10;90.30;98616.13;5104838;28;20325;-63
2021/06/24 07:12:00;;;;;;;2.20;2.00;;;;;;;17.18;88.81;98611.31;5104896;28;20027;-63
2021/06/24 07:14:25;;;;;;;2.63;1.50;;;;;;;17.14;87.18;98612.38;5104869;28;20047;-63
2021/06/24 07:16:51;;;;;;;1.60;1.50;;;;;;;17.22;87.15;98604.91;5104806;28;20027;-63
2021/06/24 07:19:16;;;;;;;1.60;1.50;;;;;;;17.41;85.43;98604.06;5104735;28;20046;-63
2021/06/24 07:21:42;;;;;;;7.85;1.60;;;;;;;17.55;85.76;98596.28;5104772;28;20185;-63
2021/06/24 07:24:08;;;;;;;1.70;1.40;;;;;;;17.56;86.15;98606.03;5104712;28;20027;-63
2021/06/24 07:26:34;;;;;;;1.15;1.05;;;;;;;17.68;84.09;98613.44;5104383;28;20099;-63
2021/06/24 07:28:59;;;;;;;2.90;1.20;;;;;;;17.73;85.15;98611.41;5104523;28;20028;-63
2021/06/24 07:31:26;;;;;;;1.35;1.25;;;;;;;17.92;84.43;98606.91;5104790;28;20328;-63
2021/06/24 07:33:52;;;;;;;2.08;1.17;;;;;;;18.12;83.58;98612.97;5104528;28;20087;-63
2021/06/24 07:36:17;;;;;;;1.40;1.30;;;;;;;18.01;82.08;98606.47;5104526;28;20031;-63
2021/06/24 07:38:43;;;;;;;1.40;1.30;;;;;;;18.04;84.62;98612.50;5104722;28;20020;-63
2021/06/24 07:41:08;;;;;;;1.30;1.20;;;;;;;18.24;83.06;98624.81;5104524;28;20024;-63
2021/06/24 07:43:33;;;;;;;1.20;1.05;;;;;;;18.18;82.50;98625.13;5104406;28;20249;-63
2021/06/24 07:45:59;;;;;;;1.40;1.30;;;;;;;18.26;82.86;98623.78;5104382;28;20024;-63
2021/06/24 07:48:24;;;;;;;1.40;1.30;;;;;;;18.52;83.74;98630.50;5104299;28;20024;-63
2021/06/24 07:50:50;;;;;;;1.30;1.20;;;;;;;18.74;82.01;98631.13;5104349;28;20031;-63
2021/06/24 07:53:15;;;;;;;1.20;1.10;;;;;;;18.73;80.78;98634.75;5104351;28;20043;-63
2021/06/24 07:58:16;;;;;;;1.30;0.93;;;;;;;19.39;76.40;98631.19;5081564;28;20398;-65
2021/06/24 08:00:42;;;;;;;5.40;1.10;;;;;;;19.94;74.15;98634.31;5081615;28;20312;-65
2021/06/24 08:03:07;;;;;;;1.42;0.98;;;;;;;19.92;73.35;98642.41;5081301;28;20211;-65
2021/06/24 08:05:33;;;;;;;1.10;1.00;;;;;;;20.10;72.96;98641.38;5081278;28;20035;-65
2021/06/24 08:07:59;;;;;;;1.23;0.77;;;;;;;19.79;74.56;98630.69;5081185;28;20013;-65
2021/06/24 08:10:24;;;;;;;1.10;1.00;;;;;;;19.68;75.33;98633.09;5081104;28;20017;-65
2021/06/24 08:12:50;;;;;;;1.38;0.98;;;;;;;19.88;76.08;98635.53;5081098;28;20020;-65
2021/06/24 08:15:17;;;;;;;1.70;1.10;;;;;;;20.23;77.36;98641.56;5081022;28;20211;-65
2021/06/24 08:17:47;;;;;;;1.25;1.00;;;;;;;20.54;74.85;98636.97;5080918;28;20027;-65
2021/06/24 08:20:14;;;;;;;0.77;0.77;;;;;;;20.50;75.54;98640.78;5081247;28;20094;-66
2021/06/24 08:22:40;;;;;;;2.05;0.93;;;;;;;20.49;75.48;98638.22;5080905;28;20047;-66
2021/06/24 08:25:07;;;;;;;0.47;0.47;;;;;;;20.46;73.70;98639.25;5080868;28;20048;-66
2021/06/24 08:27:34;;;;;;;0.77;0.60;;;;;;;20.05;72.29;98643.44;5080742;28;20023;-66
2021/06/24 08:30:00;;;;;;;1.95;0.88;;;;;;;19.73;73.65;98651.53;5080763;28;20215;-66
2021/06/24 08:32:26;;;;;;;1.20;0.82;;;;;;;19.71;77.98;98643.59;5080698;28;20041;-66
2021/06/24 08:34:51;;;;;;;1.05;0.80;;;;;;;19.81;75.72;98650.19;5080686;28;20020;-66
2021/06/24 08:37:16;;;;;;;1.60;0.65;;;;;;;19.72;77.37;98649.81;5080575;28;20016;-63
2021/06/24 08:39:48;;;;;;;0.93;0.50;;;;;;;19.43;74.67;98648.78;5080828;28;20307;-63
2021/06/24 08:42:14;;;;;;;0.53;0.53;;;;;;;19.30;77.28;98652.19;5080622;28;20020;-63
2021/06/24 08:44:40;;;;;;;0.50;0.50;;;;;;;19.27;76.38;98654.06;5080446;28;20017;-63
2021/06/24 08:47:07;;;;;;;0.88;0.52;;;;;;;19.34;77.18;98653.72;5080395;28;20028;-63
2021/06/24 08:49:34;;;;;;;0.77;0.70;;;;;;;19.47;73.87;98655.66;5080344;28;20343;-63
2021/06/24 08:51:59;;;;;;;2.50;1.08;;;;;;;19.41;76.13;98656.00;5080290;28;20082;-63
2021/06/24 08:54:25;;;;;;;1.15;0.88;;;;;;;19.56;76.18;98663.16;5080215;28;20324;-63
2021/06/24 08:56:51;;;;;;;0.65;0.55;;;;;;;19.58;76.80;98663.94;5079838;28;20082;-63
2021/06/24 08:59:16;;;;;;;0.50;0.50;;;;;;;19.35;76.49;98667.00;5080106;28;20024;-63
2021/06/24 09:01:48;;;;;;;0.63;0.60;;;;;;;19.40;75.96;98659.63;5080054;28;20025;-63
2021/06/24 09:04:19;;;;;;;2.25;0.60;;;;;;;19.21;75.19;98669.53;5080306;28;20025;-63
2021/06/24 09:06:44;;;;;;;1.20;0.50;;;;;;;19.28;74.83;98665.59;5080019;28;20029;-63
2021/06/24 09:09:15;;;;;;;0.50;0.50;;;;;;;19.11;76.80;98669.13;5069229;28;20324;-63
2021/06/24 09:11:45;;;;;;;1.13;0.60;;;;;;;19.20;77.06;98667.78;5066943;28;20025;-63
2021/06/24 09:14:13;;;;;;;0.80;0.80;;;;;;;19.16;77.24;98666.22;5066656;28;20020;-63
2021/06/24 09:16:40;;;;;;;0.75;0.57;;;;;;;19.07;75.56;98672.91;5065353;28;20346;-63
2021/06/24 09:19:26;;;;;;;2.83;0.65;;;;;;;19.08;76.17;98671.13;5066486;28;20021;-63
2021/06/24 09:22:04;;;;;;;0.70;0.63;;;;;;;19.11;75.48;98668.28;5066519;28;20045;-63
2021/06/24 09:24:34;;;;;;;1.23;0.60;;;;;;;19.16;74.73;98671.56;5066364;28;20098;-63
2021/06/24 09:27:02;;;;;;;0.45;0.40;;;;;;;19.21;75.16;98674.84;5065243;28;20278;-63
2021/06/24 09:29:28;;;;;;;1.15;0.60;;;;;;;19.12;75.20;98670.84;5066180;28;20038;-63
2021/06/24 09:31:56;;;;;;;0.57;0.57;;;;;;;19.23;76.26;98671.16;5066316;28;20025;-63
2021/06/24 09:34:22;;;;;;;0.60;0.60;;;;;;;19.43;75.68;98670.13;5066534;28;20027;-63
2021/06/24 09:36:51;;;;;;;0.75;0.50;;;;;;;19.42;74.86;98672.88;5066157;28;20452;-63
2021/06/24 09:39:21;;;;;;;3.15;0.60;;;;;;;19.55;75.22;98668.59;5066122;28;20033;-63
2021/06/24 09:42:10;;;;;;;0.60;0.60;;;;;;;19.35;74.71;98675.00;5066380;28;20092;-63
2021/06/24 09:44:43;;;;;;;0.95;0.68;;;;;;;19.23;75.23;98673.81;5066037;28;20029;-63
2021/06/24 09:47:29;;;;;;;0.60;0.60;;;;;;;19.27;77.48;98669.22;5066049;28;20092;-63
2021/06/24 09:50:04;;;;;;;0.60;0.60;;;;;;;19.15;76.50;98669.84;5066369;28;20351;-63
2021/06/24 09:52:30;;;;;;;1.33;0.70;;;;;;;19.03;75.62;98670.47;5065894;28;20025;-63
2021/06/24 09:55:05;;;;;;;1.38;0.80;;;;;;;19.17;78.44;98662.59;5065885;28;20216;-63
2021/06/24 09:57:31;;;;;;;0.63;0.63;;;;;;;19.02;77.87;98669.59;5065562;28;20379;-63
2021/06/24 09:59:56;;;;;;;0.82;0.70;;;;;;;19.11;75.88;98662.94;5065810;28;20021;-63
2021/06/24 10:02:21;;;;;;;0.70;0.70;;;;;;;19.08;77.65;98665.78;5065753;28;20093;-63
2021/06/24 10:04:48;;;;;;;1.10;0.70;;;;;;;19.14;78.72;98657.41;5065677;28;20032;-63
2021/06/24 10:07:20;;;;;;;1.45;0.68;;;;;;;19.12;76.44;98660.16;5065662;28;20021;-63
2021/06/24 10:09:45;;;;;;;0.63;0.63;;;;;;;19.21;75.63;98664.19;5065729;28;20336;-63
2021/06/24 10:12:16;;;;;;;0.60;0.60;;;;;;;19.47;75.66;98655.66;5065512;28;20028;-63
2021/06/24 10:14:42;;;;;;;0.63;0.60;;;;;;;19.89;74.42;98653.28;5065812;28;20344;-63
2021/06/24 10:17:08;;;;;;;0.77;0.60;;;;;;;20.10;71.84;98657.41;5065366;28;20033;-63
2021/06/24 10:19:34;;;;;;;0.40;0.40;;;;;;;20.21;71.52;98656.81;5064607;28;20325;-63
2021/06/24 10:22:21;;;;;;;1.63;0.60;;;;;;;20.19;72.12;98662.25;5065134;28;20025;-63
2021/06/24 10:24:52;;;;;;;1.50;0.60;;;;;;;20.23;74.66;98658.47;5065393;28;20082;-63
2021/06/24 10:27:19;;;;;;;0.60;0.60;;;;;;;20.08;74.21;98663.78;5065252;28;20094;-63
2021/06/24 10:29:51;;;;;;;1.35;0.57;;;;;;;19.99;73.23;98667.00;5065201;28;20025;-63
2021/06/24 10:32:32;;;;;;;0.32;0.32;;;;;;;19.70;70.50;98660.59;5065210;28;20070;-63
2021/06/24 10:35:00;;;;;;;0.75;0.40;;;;;;;19.74;70.46;98658.63;5065137;28;20029;-63
2021/06/24 10:37:27;;;;;;;0.52;0.50;;;;;;;19.70;71.19;98657.91;5065027;28;20078;-63
2021/06/24 10:39:55;;;;;;;0.50;0.50;;;;;;;19.52;73.66;98660.75;5065008;28;20074;-63
2021/06/24 10:42:23;;;;;;;2.47;0.60;;;;;;;19.53;76.51;98660.66;5064972;28;20096;-63
2021/06/24 10:44:51;;;;;;;0.60;0.50;;;;;;;19.60;75.71;98667.38;5064884;28;20069;-63
2021/06/24 10:47:29;;;;;;;1.98;0.60;;;;;;;19.62;73.20;98661.97;5064853;28;20040;-63
2021/06/24 10:50:14;;;;;;;0.52;0.52;;;;;;;19.65;73.54;98659.13;5064844;28;20029;-63
2021/06/24 10:52:40;;;;;;;0.60;0.50;;;;;;;19.75;76.82;98658.53;5064686;28;20028;-63
2021/06/24 10:55:50;;;;;;;0.40;0.40;;;;;;;19.74;73.55;98659.47;5064749;28;20308;-63
2021/06/24 10:58:18;;;;;;;1.00;0.70;;;;;;;19.56;76.36;98659.63;5064769;28;20037;-63
2021/06/24 11:00:44;;;;;;;1.70;0.60;;;;;;;19.50;79.52;98663.50;5064893;28;20043;-63
2021/06/24 11:03:11;;;;;;;0.88;0.88;;;;;;;19.39;80.77;98649.84;5064569;28;20316;-63
2021/06/24 11:05:48;;;;;;;1.05;0.80;;;;;;;19.23;81.34;98652.47;5064525;28;20309;-63
2021/06/24 11:08:27;;;;;;;1.17;0.90;;;;;;;19.14;82.78;98652.09;5064557;28;20328;-63
2021/06/24 11:10:58;;;;;;;0.90;0.73;;;;;;;19.04;82.76;98648.19;5064479;28;20086;-63
2021/06/24 11:13:52;;;;;;;1.85;0.70;;;;;;;18.83;84.23;98657.34;5064448;28;20021;-63
2021/06/24 11:16:21;;;;;;;1.60;0.80;;;;;;;18.69;85.09;98657.16;5063781;28;20041;-63
2021/06/24 11:18:51;;;;;;;1.73;0.85;;;;;;;18.59;84.70;98661.25;5064293;28;20025;-63
2021/06/24 11:21:28;;;;;;;0.98;0.70;;;;;;;18.54;84.25;98657.97;5064601;28;20366;-63
2021/06/24 11:23:55;;;;;;;1.30;1.00;;;;;;;18.65;86.02;98659.16;5064543;28;20021;-63
2021/06/24 11:26:27;;;;;;;0.82;0.82;;;;;;;18.66;84.78;98654.66;5064230;28;20025;-63
2021/06/24 11:31:37;;;;;;;1.33;0.60;;;;;;;18.83;83.72;98662.66;5063915;28;20350;-63